createdAt,value
2023-08-27T00:00:33.007Z,1.90
2023-08-27T00:01:32.975Z,1.70
2023-08-27T00:02:33.006Z,1.90
2023-08-27T00:03:33.110Z,1.90
2023-08-27T00:04:32.901Z,2.00
2023-08-27T00:05:32.901Z,2.00
2023-08-27T00:06:32.933Z,1.60
2023-08-27T00:07:32.876Z,1.90
2023-08-27T00:08:32.880Z,2.00
2023-08-27T00:09:32.835Z,1.90
2023-08-27T00:10:32.848Z,1.70
2023-08-27T00:11:32.832Z,1.80
2023-08-27T00:12:32.840Z,2.00
2023-08-27T00:13:32.856Z,1.90
2023-08-27T00:14:32.786Z,2.00
2023-08-27T00:15:32.804Z,2.00
2023-08-27T00:16:32.805Z,2.00
2023-08-27T00:17:32.789Z,1.90
2023-08-27T00:18:32.774Z,2.00
2023-08-27T00:19:32.741Z,1.80
2023-08-27T00:20:32.744Z,1.90
2023-08-27T00:21:32.725Z,1.70
2023-08-27T00:22:32.737Z,1.90
2023-08-27T00:23:32.711Z,1.80
2023-08-27T00:24:32.671Z,2.00
2023-08-27T00:25:32.745Z,1.80
2023-08-27T00:26:32.695Z,1.90
2023-08-27T00:27:32.665Z,1.70
2023-08-27T00:28:32.644Z,2.10
2023-08-27T00:29:32.651Z,2.00
2023-08-27T00:30:32.613Z,2.40
2023-08-27T00:31:34.039Z,1.90
2023-08-27T00:32:32.648Z,2.00
2023-08-27T00:33:32.579Z,2.00
2023-08-27T00:34:32.599Z,2.10
2023-08-27T00:35:32.610Z,2.00
2023-08-27T00:36:32.575Z,2.10
2023-08-27T00:37:32.605Z,1.80
2023-08-27T00:38:32.528Z,1.80
2023-08-27T00:39:32.528Z,2.00
2023-08-27T00:40:32.559Z,1.60
2023-08-27T00:41:32.535Z,1.80
2023-08-27T00:42:32.530Z,1.90
2023-08-27T00:43:32.572Z,1.80
2023-08-27T00:44:32.485Z,1.90
2023-08-27T00:45:32.547Z,1.80
2023-08-27T00:46:32.465Z,1.80
2023-08-27T00:47:32.507Z,1.90
2023-08-27T00:48:32.456Z,2.00
2023-08-27T00:49:32.442Z,1.80
2023-08-27T00:50:32.414Z,1.70
2023-08-27T00:51:32.432Z,1.70
2023-08-27T00:52:32.442Z,1.80
2023-08-27T00:53:32.447Z,1.80
2023-08-27T00:54:32.393Z,1.80
2023-08-27T00:55:32.371Z,1.90
2023-08-27T00:56:32.336Z,1.80
2023-08-27T00:57:32.377Z,1.80
2023-08-27T00:58:32.339Z,1.90
2023-08-27T00:59:32.373Z,1.80
2023-08-27T01:00:32.291Z,2.00
2023-08-27T01:01:32.364Z,1.70
2023-08-27T01:02:32.303Z,2.10
2023-08-27T01:03:32.297Z,2.00
2023-08-27T01:04:32.279Z,1.80
2023-08-27T01:05:32.277Z,1.70
2023-08-27T01:06:32.232Z,1.80
2023-08-27T01:07:32.218Z,1.70
2023-08-27T01:08:32.222Z,2.00
2023-08-27T01:09:32.222Z,1.80
2023-08-27T01:10:32.216Z,1.70
2023-08-27T01:11:32.218Z,2.00
2023-08-27T01:12:32.196Z,1.80
2023-08-27T01:13:32.169Z,1.60
2023-08-27T01:14:32.247Z,1.80
2023-08-27T01:15:32.215Z,1.70
2023-08-27T01:16:32.172Z,2.00
2023-08-27T01:17:32.124Z,1.60
2023-08-27T01:18:32.117Z,1.70
2023-08-27T01:19:32.087Z,1.80
2023-08-27T01:20:32.149Z,1.60
2023-08-27T01:21:32.078Z,1.70
2023-08-27T01:22:32.092Z,1.60
2023-08-27T01:23:32.055Z,1.70
2023-08-27T01:24:32.035Z,1.70
2023-08-27T01:25:32.024Z,1.60
2023-08-27T01:26:32.021Z,1.70
2023-08-27T01:27:32.042Z,1.80
2023-08-27T01:28:32.026Z,1.60
2023-08-27T01:29:31.989Z,1.60
2023-08-27T01:30:31.969Z,1.70
2023-08-27T01:31:31.999Z,1.80
2023-08-27T01:32:31.990Z,2.40
2023-08-27T01:33:31.983Z,2.20
2023-08-27T01:34:31.958Z,1.80
2023-08-27T01:35:31.910Z,2.10
2023-08-27T01:36:31.919Z,1.80
2023-08-27T01:37:31.895Z,2.20
2023-08-27T01:38:31.894Z,2.20
2023-08-27T01:39:31.887Z,2.10
2023-08-27T01:40:31.903Z,2.10
2023-08-27T01:41:31.873Z,2.20
2023-08-27T01:42:31.862Z,2.00
2023-08-27T01:43:31.863Z,2.10
2023-08-27T01:44:31.822Z,2.20
2023-08-27T01:45:31.859Z,1.90
2023-08-27T01:46:31.889Z,2.30
2023-08-27T01:47:31.852Z,2.30
2023-08-27T01:48:31.809Z,2.30
2023-08-27T01:49:31.798Z,2.30
2023-08-27T01:50:31.775Z,2.10
2023-08-27T01:51:31.801Z,2.10
2023-08-27T01:52:31.726Z,2.30
2023-08-27T01:53:31.803Z,2.10
2023-08-27T01:54:31.713Z,2.00
2023-08-27T01:55:31.710Z,2.10
2023-08-27T01:56:31.741Z,1.90
2023-08-27T01:57:31.706Z,2.40
2023-08-27T01:58:31.731Z,2.30
2023-08-27T01:59:31.667Z,2.30
2023-08-27T02:00:31.764Z,2.20
2023-08-27T02:01:31.746Z,2.20
2023-08-27T02:02:31.712Z,2.30
2023-08-27T02:03:31.753Z,2.40
2023-08-27T02:04:31.601Z,1.90
2023-08-27T02:05:31.596Z,2.00
2023-08-27T02:06:31.625Z,2.30
2023-08-27T02:07:31.595Z,2.30
2023-08-27T02:08:31.587Z,2.10
2023-08-27T02:09:31.605Z,2.00
2023-08-27T02:10:31.550Z,1.90
2023-08-27T02:11:31.544Z,2.00
2023-08-27T02:12:31.520Z,2.00
2023-08-27T02:13:31.540Z,1.90
2023-08-27T02:14:31.541Z,2.00
2023-08-27T02:15:31.487Z,2.10
2023-08-27T02:16:31.516Z,2.00
2023-08-27T02:17:31.564Z,2.10
2023-08-27T02:18:31.498Z,2.00
2023-08-27T02:19:31.447Z,2.30
2023-08-27T02:20:31.477Z,2.10
2023-08-27T02:21:31.425Z,2.30
2023-08-27T02:22:31.411Z,2.00
2023-08-27T02:23:31.400Z,2.10
2023-08-27T02:24:31.405Z,2.00
2023-08-27T02:25:31.428Z,2.30
2023-08-27T02:26:31.398Z,2.30
2023-08-27T02:27:31.422Z,2.30
2023-08-27T02:28:31.351Z,2.10
2023-08-27T02:29:31.336Z,2.10
2023-08-27T02:30:31.337Z,1.90
2023-08-27T02:31:31.332Z,2.10
2023-08-27T02:32:31.383Z,1.90
2023-08-27T02:33:31.342Z,2.10
2023-08-27T02:34:31.313Z,1.90
2023-08-27T02:35:31.287Z,2.00
2023-08-27T02:36:31.298Z,2.00
2023-08-27T02:37:31.257Z,2.10
2023-08-27T02:38:31.279Z,2.10
2023-08-27T02:39:31.230Z,2.20
2023-08-27T02:40:31.241Z,2.20
2023-08-27T02:41:31.200Z,2.00
2023-08-27T02:42:31.199Z,2.00
2023-08-27T02:43:31.209Z,2.00
2023-08-27T02:44:31.201Z,2.10
2023-08-27T02:45:31.222Z,2.10
2023-08-27T02:46:31.242Z,2.00
2023-08-27T02:47:31.155Z,2.00
2023-08-27T02:48:31.196Z,2.20
2023-08-27T02:49:31.153Z,2.00
2023-08-27T02:50:31.133Z,2.20
2023-08-27T02:51:31.110Z,1.90
2023-08-27T02:52:31.086Z,2.20
2023-08-27T02:53:31.106Z,2.30
2023-08-27T02:54:31.086Z,2.00
2023-08-27T02:55:31.072Z,2.10
2023-08-27T02:56:31.053Z,1.90
2023-08-27T02:57:31.040Z,2.00
2023-08-27T02:58:31.025Z,2.00
2023-08-27T02:59:31.055Z,2.10
2023-08-27T03:00:31.023Z,2.10
2023-08-27T03:01:31.074Z,1.90
2023-08-27T03:02:30.981Z,2.40
2023-08-27T03:03:31.032Z,2.10
2023-08-27T03:04:30.964Z,2.00
2023-08-27T03:05:30.963Z,2.00
2023-08-27T03:06:30.947Z,1.90
2023-08-27T03:07:30.963Z,2.00
2023-08-27T03:08:30.920Z,2.20
2023-08-27T03:09:30.921Z,2.00
2023-08-27T03:10:30.903Z,1.90
2023-08-27T03:11:30.883Z,2.10
2023-08-27T03:12:30.881Z,2.20
2023-08-27T03:13:30.934Z,2.00
2023-08-27T03:14:30.863Z,2.20
2023-08-27T03:15:30.864Z,2.60
2023-08-27T03:16:30.848Z,1.90
2023-08-27T03:17:30.836Z,2.10
2023-08-27T03:18:30.857Z,2.10
2023-08-27T03:19:30.793Z,2.10
2023-08-27T03:20:30.784Z,2.30
2023-08-27T03:21:30.809Z,1.90
2023-08-27T03:22:30.768Z,2.10
2023-08-27T03:23:30.760Z,2.00
2023-08-27T03:24:30.752Z,2.10
2023-08-27T03:25:30.739Z,2.30
2023-08-27T03:26:30.774Z,1.90
2023-08-27T03:27:30.707Z,2.30
2023-08-27T03:28:30.701Z,1.90
2023-08-27T03:29:30.713Z,2.10
2023-08-27T03:30:30.691Z,2.10
2023-08-27T03:31:30.692Z,2.10
2023-08-27T03:32:30.754Z,2.20
2023-08-27T03:33:30.645Z,2.00
2023-08-27T03:34:30.644Z,2.20
2023-08-27T03:35:30.636Z,2.00
2023-08-27T03:36:30.636Z,2.10
2023-08-27T03:37:30.621Z,2.40
2023-08-27T03:38:30.584Z,2.50
2023-08-27T03:39:30.588Z,2.10
2023-08-27T03:40:30.591Z,2.20
2023-08-27T03:41:30.574Z,2.20
2023-08-27T03:42:30.569Z,2.40
2023-08-27T03:43:30.540Z,2.40
2023-08-27T03:44:30.541Z,2.10
2023-08-27T03:45:30.525Z,2.20
2023-08-27T03:46:30.504Z,2.10
2023-08-27T03:47:30.552Z,2.20
2023-08-27T03:48:30.521Z,2.40
2023-08-27T03:49:30.481Z,2.00
2023-08-27T03:50:30.458Z,1.90
2023-08-27T03:51:30.471Z,2.00
2023-08-27T03:52:30.446Z,2.20
2023-08-27T03:53:30.452Z,2.00
2023-08-27T03:54:30.446Z,2.40
2023-08-27T03:55:30.408Z,2.30
2023-08-27T03:56:30.414Z,2.10
2023-08-27T03:57:30.389Z,2.20
2023-08-27T03:58:30.377Z,2.00
2023-08-27T03:59:30.391Z,2.40
2023-08-27T04:00:30.372Z,2.20
2023-08-27T04:01:30.392Z,1.90
2023-08-27T04:02:30.334Z,2.40
2023-08-27T04:03:30.504Z,2.40
2023-08-27T04:04:30.334Z,2.40
2023-08-27T04:05:30.347Z,2.30
2023-08-27T04:06:30.284Z,2.00
2023-08-27T04:07:30.325Z,1.90
2023-08-27T04:08:30.310Z,2.00
2023-08-27T04:09:30.290Z,1.90
2023-08-27T04:10:30.269Z,1.90
2023-08-27T04:11:30.273Z,2.20
2023-08-27T04:12:30.229Z,2.00
2023-08-27T04:13:30.222Z,2.10
2023-08-27T04:14:30.265Z,1.90
2023-08-27T04:15:30.210Z,2.00
2023-08-27T04:16:30.198Z,2.10
2023-08-27T04:17:30.221Z,2.10
2023-08-27T04:18:30.188Z,1.80
2023-08-27T04:19:30.175Z,2.00
2023-08-27T04:20:30.150Z,2.00
2023-08-27T04:21:30.118Z,2.00
2023-08-27T04:22:30.065Z,1.80
2023-08-27T04:23:30.092Z,2.10
2023-08-27T04:24:30.060Z,2.00
2023-08-27T04:25:30.049Z,1.60
2023-08-27T04:26:30.088Z,1.90
2023-08-27T04:27:30.019Z,1.80
2023-08-27T04:28:30.016Z,1.80
2023-08-27T04:29:30.015Z,2.00
2023-08-27T04:30:30.010Z,2.00
2023-08-27T04:31:30.281Z,2.10
2023-08-27T04:32:30.011Z,1.70
2023-08-27T04:33:29.998Z,1.80
2023-08-27T04:34:29.951Z,1.90
2023-08-27T04:35:29.940Z,1.80
2023-08-27T04:36:29.972Z,1.90
2023-08-27T04:37:29.951Z,1.70
2023-08-27T04:38:29.897Z,1.80
2023-08-27T04:39:29.937Z,1.90
2023-08-27T04:40:29.895Z,1.90
2023-08-27T04:41:29.880Z,1.90
2023-08-27T04:42:29.892Z,1.90
2023-08-27T04:43:29.879Z,2.20
2023-08-27T04:44:29.865Z,2.00
2023-08-27T04:45:29.899Z,2.00
2023-08-27T04:46:29.822Z,2.00
2023-08-27T04:47:29.860Z,2.20
2023-08-27T04:48:29.815Z,2.20
2023-08-27T04:49:29.814Z,2.00
2023-08-27T04:50:29.864Z,1.90
2023-08-27T04:51:29.780Z,2.00
2023-08-27T04:52:32.479Z,2.40
2023-08-27T04:53:29.743Z,1.90
2023-08-27T04:54:29.774Z,2.00
2023-08-27T04:55:29.705Z,2.00
2023-08-27T04:56:29.701Z,2.00
2023-08-27T04:57:29.706Z,2.10
2023-08-27T04:58:29.728Z,2.10
2023-08-27T04:59:29.725Z,2.10
2023-08-27T05:00:29.664Z,2.10
2023-08-27T05:01:29.697Z,2.20
2023-08-27T05:02:29.762Z,1.90
2023-08-27T05:03:29.736Z,2.10
2023-08-27T05:04:29.637Z,2.10
2023-08-27T05:05:29.632Z,2.10
2023-08-27T05:06:29.632Z,2.10
2023-08-27T05:07:29.576Z,2.10
2023-08-27T05:08:29.645Z,2.00
2023-08-27T05:09:29.582Z,2.10
2023-08-27T05:10:29.581Z,2.20
2023-08-27T05:11:29.559Z,2.40
2023-08-27T05:12:29.579Z,2.20
2023-08-27T05:13:29.552Z,2.10
2023-08-27T05:14:29.519Z,2.00
2023-08-27T05:15:29.579Z,2.30
2023-08-27T05:16:29.511Z,2.30
2023-08-27T05:17:29.482Z,2.60
2023-08-27T05:18:29.574Z,2.30
2023-08-27T05:19:29.461Z,2.30
2023-08-27T05:20:29.476Z,2.20
2023-08-27T05:21:29.442Z,2.10
2023-08-27T05:22:29.432Z,2.20
2023-08-27T05:23:29.441Z,2.40
2023-08-27T05:24:29.427Z,2.20
2023-08-27T05:25:29.401Z,2.70
2023-08-27T05:26:29.379Z,2.50
2023-08-27T05:27:29.381Z,2.20
2023-08-27T05:28:29.360Z,2.40
2023-08-27T05:29:29.349Z,2.30
2023-08-27T05:30:29.378Z,2.80
2023-08-27T05:31:29.420Z,2.80
2023-08-27T05:32:29.465Z,2.40
2023-08-27T05:33:29.315Z,2.20
2023-08-27T05:34:29.315Z,2.00
2023-08-27T05:35:29.320Z,2.70
2023-08-27T05:36:29.260Z,2.70
2023-08-27T05:37:29.308Z,2.30
2023-08-27T05:38:29.264Z,2.60
2023-08-27T05:39:29.254Z,2.70
2023-08-27T05:40:29.262Z,2.60
2023-08-27T05:41:29.232Z,2.50
2023-08-27T05:42:29.235Z,2.50
2023-08-27T05:43:29.255Z,2.80
2023-08-27T05:44:29.204Z,2.80
2023-08-27T05:45:29.184Z,2.70
2023-08-27T05:46:29.228Z,2.80
2023-08-27T05:47:29.178Z,2.60
2023-08-27T05:48:30.948Z,2.70
2023-08-27T05:49:29.219Z,3.20
2023-08-27T05:50:29.147Z,2.80
2023-08-27T05:51:29.135Z,3.00
2023-08-27T05:52:29.130Z,3.00
2023-08-27T05:53:29.143Z,2.90
2023-08-27T05:54:29.115Z,2.90
2023-08-27T05:55:29.093Z,2.80
2023-08-27T05:56:29.066Z,3.00
2023-08-27T05:57:29.086Z,2.90
2023-08-27T05:58:29.070Z,3.20
2023-08-27T05:59:29.090Z,2.80
2023-08-27T06:00:29.089Z,3.10
2023-08-27T06:01:29.091Z,2.80
2023-08-27T06:02:29.053Z,2.60
2023-08-27T06:03:29.044Z,2.70
2023-08-27T06:04:28.981Z,2.70
2023-08-27T06:05:29.012Z,2.70
2023-08-27T06:06:28.984Z,2.60
2023-08-27T06:07:31.541Z,2.70
2023-08-27T06:08:28.955Z,2.70
2023-08-27T06:09:28.935Z,2.70
2023-08-27T06:10:28.918Z,2.70
2023-08-27T06:11:28.922Z,4.10
2023-08-27T06:12:28.933Z,5.20
2023-08-27T06:13:28.938Z,4.10
2023-08-27T06:14:28.870Z,5.70
2023-08-27T06:15:28.920Z,5.70
2023-08-27T06:16:28.868Z,4.60
2023-08-27T06:17:28.894Z,3.80
2023-08-27T06:18:28.894Z,4.00
2023-08-27T06:19:42.969Z,3.00
2023-08-27T06:20:28.828Z,4.10
2023-08-27T06:21:28.835Z,3.60
2023-08-27T06:22:28.803Z,3.30
2023-08-27T06:23:28.851Z,3.40
2023-08-27T06:24:28.772Z,3.70
2023-08-27T06:25:28.775Z,3.60
2023-08-27T06:26:28.777Z,3.40
2023-08-27T06:27:28.749Z,3.30
2023-08-27T06:28:28.727Z,3.20
2023-08-27T06:29:28.730Z,3.70
2023-08-27T06:30:28.754Z,3.40
2023-08-27T06:31:28.728Z,3.50
2023-08-27T06:32:28.692Z,6.10
2023-08-27T06:33:28.684Z,7.20
2023-08-27T06:34:28.725Z,5.80
2023-08-27T06:35:28.683Z,4.60
2023-08-27T06:36:28.682Z,5.50
2023-08-27T06:37:28.630Z,5.00
2023-08-27T06:38:28.624Z,3.90
2023-08-27T06:39:28.637Z,3.90
2023-08-27T06:40:28.607Z,3.70
2023-08-27T06:41:28.617Z,3.20
2023-08-27T06:42:28.615Z,3.10
2023-08-27T06:43:28.578Z,2.90
2023-08-27T06:44:28.557Z,3.10
2023-08-27T06:45:28.571Z,3.10
2023-08-27T06:46:28.589Z,2.80
2023-08-27T06:47:30.219Z,2.80
2023-08-27T06:48:28.550Z,2.70
2023-08-27T06:49:28.501Z,2.60
2023-08-27T06:50:28.499Z,2.80
2023-08-27T06:51:28.477Z,2.80
2023-08-27T06:52:28.480Z,2.60
2023-08-27T06:53:28.450Z,2.70
2023-08-27T06:54:28.536Z,2.80
2023-08-27T06:55:28.444Z,3.10
2023-08-27T06:56:28.435Z,3.00
2023-08-27T06:57:28.413Z,3.10
2023-08-27T06:58:28.416Z,3.70
2023-08-27T06:59:28.392Z,3.50
2023-08-27T07:00:30.053Z,2.90
2023-08-27T07:01:28.428Z,3.40
2023-08-27T07:02:28.419Z,3.00
2023-08-27T07:03:28.388Z,2.90
2023-08-27T07:04:28.336Z,2.90
2023-08-27T07:05:28.320Z,2.90
2023-08-27T07:06:28.343Z,3.20
2023-08-27T07:07:28.304Z,2.80
2023-08-27T07:08:28.321Z,3.40
2023-08-27T07:09:28.274Z,2.90
2023-08-27T07:10:28.280Z,2.90
2023-08-27T07:11:28.267Z,2.90
2023-08-27T07:12:28.242Z,2.90
2023-08-27T07:13:28.231Z,3.10
2023-08-27T07:14:28.289Z,3.00
2023-08-27T07:15:28.245Z,5.00
2023-08-27T07:16:28.209Z,3.80
2023-08-27T07:17:28.221Z,8.10
2023-08-27T07:18:28.189Z,6.50
2023-08-27T07:19:30.135Z,4.80
2023-08-27T07:20:28.169Z,4.30
2023-08-27T07:21:28.185Z,3.50
2023-08-27T07:22:28.157Z,2.90
2023-08-27T07:23:28.135Z,3.00
2023-08-27T07:24:28.122Z,2.90
2023-08-27T07:25:28.144Z,2.70
2023-08-27T07:26:28.099Z,2.60
2023-08-27T07:27:28.107Z,2.80
2023-08-27T07:28:28.100Z,2.90
2023-08-27T07:29:28.090Z,2.70
2023-08-27T07:30:28.082Z,2.40
2023-08-27T07:31:28.109Z,2.60
2023-08-27T07:32:28.067Z,2.70
2023-08-27T07:33:28.070Z,2.40
2023-08-27T07:34:28.006Z,2.10
2023-08-27T07:35:28.046Z,2.40
2023-08-27T07:36:28.022Z,2.10
2023-08-27T07:37:28.014Z,2.50
2023-08-27T07:38:28.042Z,2.90
2023-08-27T07:39:27.961Z,2.70
2023-08-27T07:40:27.942Z,5.00
2023-08-27T07:41:27.950Z,3.90
2023-08-27T07:42:27.954Z,3.70
2023-08-27T07:43:27.943Z,2.90
2023-08-27T07:44:27.919Z,2.60
2023-08-27T07:45:27.895Z,2.60
2023-08-27T07:46:27.939Z,2.20
2023-08-27T07:47:27.895Z,2.30
2023-08-27T07:48:27.926Z,1.90
2023-08-27T07:49:27.892Z,2.00
2023-08-27T07:50:27.851Z,2.00
2023-08-27T07:51:27.823Z,2.00
2023-08-27T07:52:27.845Z,1.60
2023-08-27T07:53:27.839Z,1.70
2023-08-27T07:54:27.858Z,1.70
2023-08-27T07:55:27.804Z,1.60
2023-08-27T07:56:27.802Z,1.90
2023-08-27T07:57:27.812Z,1.90
2023-08-27T07:58:27.781Z,1.60
2023-08-27T07:59:27.750Z,1.50
2023-08-27T08:00:27.761Z,1.50
2023-08-27T08:01:27.779Z,1.60
2023-08-27T08:02:27.738Z,1.60
2023-08-27T08:03:27.824Z,1.50
2023-08-27T08:04:27.704Z,1.50
2023-08-27T08:05:27.730Z,1.70
2023-08-27T08:06:27.724Z,1.40
2023-08-27T08:07:27.689Z,1.80
2023-08-27T08:08:27.681Z,2.10
2023-08-27T08:09:27.649Z,1.70
2023-08-27T08:10:27.656Z,4.80
2023-08-27T08:11:27.638Z,5.40
2023-08-27T08:12:27.641Z,3.80
2023-08-27T08:13:27.648Z,2.90
2023-08-27T08:14:27.651Z,3.70
2023-08-27T08:15:27.627Z,2.90
2023-08-27T08:16:27.697Z,2.50
2023-08-27T08:17:35.904Z,2.10
2023-08-27T08:18:27.676Z,1.90
2023-08-27T08:19:27.535Z,2.00
2023-08-27T08:20:27.546Z,1.90
2023-08-27T08:21:27.615Z,1.60
2023-08-27T08:22:27.556Z,2.10
2023-08-27T08:23:27.573Z,1.90
2023-08-27T08:24:27.527Z,2.00
2023-08-27T08:25:27.513Z,2.00
2023-08-27T08:26:27.518Z,1.90
2023-08-27T08:27:27.475Z,1.80
2023-08-27T08:28:27.438Z,1.80
2023-08-27T08:29:27.447Z,1.80
2023-08-27T08:30:27.432Z,1.70
2023-08-27T08:31:27.526Z,1.50
2023-08-27T08:32:27.421Z,1.70
2023-08-27T08:33:27.421Z,1.70
2023-08-27T08:34:27.381Z,1.70
2023-08-27T08:35:27.388Z,1.80
2023-08-27T08:36:27.390Z,1.60
2023-08-27T08:37:27.360Z,1.50
2023-08-27T08:38:27.359Z,1.40
2023-08-27T08:39:27.374Z,1.50
2023-08-27T08:40:27.337Z,1.80
2023-08-27T08:41:27.332Z,1.60
2023-08-27T08:42:27.310Z,2.00
2023-08-27T08:43:27.293Z,1.80
2023-08-27T08:44:27.311Z,2.20
2023-08-27T08:45:27.291Z,1.90
2023-08-27T08:46:27.280Z,1.90
2023-08-27T08:47:27.383Z,2.70
2023-08-27T08:48:27.248Z,2.30
2023-08-27T08:49:27.248Z,2.10
2023-08-27T08:50:27.246Z,2.10
2023-08-27T08:51:27.227Z,2.20
2023-08-27T08:52:27.197Z,2.00
2023-08-27T08:53:27.215Z,2.10
2023-08-27T08:54:27.248Z,2.10
2023-08-27T08:55:27.149Z,2.70
2023-08-27T08:56:27.156Z,2.00
2023-08-27T08:57:27.152Z,2.20
2023-08-27T08:58:27.136Z,1.90
2023-08-27T08:59:27.101Z,2.30
2023-08-27T09:00:27.133Z,3.00
2023-08-27T09:01:27.132Z,6.50
2023-08-27T09:02:27.107Z,6.80
2023-08-27T09:03:27.077Z,3.60
2023-08-27T09:04:27.068Z,2.90
2023-08-27T09:05:27.127Z,2.30
2023-08-27T09:06:27.064Z,2.20
2023-08-27T09:07:27.033Z,2.10
2023-08-27T09:08:27.026Z,1.80
2023-08-27T09:09:27.000Z,1.60
2023-08-27T09:10:27.028Z,1.70
2023-08-27T09:11:26.996Z,2.10
2023-08-27T09:12:27.005Z,2.40
2023-08-27T09:13:26.989Z,2.30
2023-08-27T09:14:26.975Z,2.50
2023-08-27T09:15:26.953Z,2.30
2023-08-27T09:16:26.983Z,2.30
2023-08-27T09:17:28.230Z,2.10
2023-08-27T09:18:26.948Z,2.00
2023-08-27T09:19:26.950Z,1.80
2023-08-27T09:20:26.969Z,2.10
2023-08-27T09:21:26.984Z,1.60
2023-08-27T09:22:26.885Z,1.50
2023-08-27T09:23:26.918Z,1.50
2023-08-27T09:24:26.894Z,1.50
2023-08-27T09:25:26.908Z,1.80
2023-08-27T09:26:26.877Z,1.50
2023-08-27T09:27:26.836Z,1.50
2023-08-27T09:28:26.825Z,1.80
2023-08-27T09:29:26.876Z,1.50
2023-08-27T09:30:26.791Z,1.50
2023-08-27T09:31:26.796Z,1.80
2023-08-27T09:32:26.798Z,3.40
2023-08-27T09:33:26.763Z,3.50
2023-08-27T09:34:26.759Z,3.50
2023-08-27T09:35:26.784Z,3.60
2023-08-27T09:36:26.719Z,2.20
2023-08-27T09:37:26.729Z,2.10
2023-08-27T09:38:26.735Z,2.00
2023-08-27T09:39:26.733Z,1.90
2023-08-27T09:40:26.745Z,2.00
2023-08-27T09:41:26.666Z,1.70
2023-08-27T09:42:26.714Z,1.50
2023-08-27T09:43:26.672Z,1.50
2023-08-27T09:44:26.697Z,1.60
2023-08-27T09:45:26.643Z,1.50
2023-08-27T09:46:26.657Z,1.40
2023-08-27T09:47:26.648Z,1.80
2023-08-27T09:48:26.685Z,1.60
2023-08-27T09:49:26.663Z,1.40
2023-08-27T09:50:26.619Z,1.70
2023-08-27T09:51:26.584Z,1.50
2023-08-27T09:52:32.697Z,1.40
2023-08-27T09:53:26.566Z,1.30
2023-08-27T09:54:26.557Z,1.40
2023-08-27T09:55:26.517Z,1.30
2023-08-27T09:56:26.517Z,1.50
2023-08-27T09:57:26.537Z,1.40
2023-08-27T09:58:26.500Z,1.60
2023-08-27T09:59:26.520Z,1.50
2023-08-27T10:00:26.489Z,1.40
2023-08-27T10:01:26.881Z,1.50
2023-08-27T10:02:26.477Z,1.60
2023-08-27T10:03:26.491Z,1.50
2023-08-27T10:04:26.446Z,1.80
2023-08-27T10:05:26.439Z,1.70
2023-08-27T10:06:26.410Z,1.60
2023-08-27T10:07:26.427Z,1.50
2023-08-27T10:08:26.396Z,1.40
2023-08-27T10:09:26.380Z,1.40
2023-08-27T10:10:26.375Z,1.40
2023-08-27T10:11:26.363Z,1.40
2023-08-27T10:12:26.364Z,1.40
2023-08-27T10:13:26.362Z,1.60
2023-08-27T10:14:26.336Z,1.50
2023-08-27T10:15:26.320Z,1.60
2023-08-27T10:16:26.299Z,1.80
2023-08-27T10:17:26.365Z,1.30
2023-08-27T10:18:27.584Z,1.30
2023-08-27T10:19:26.287Z,1.50
2023-08-27T10:20:26.256Z,1.40
2023-08-27T10:21:26.259Z,1.30
2023-08-27T10:22:26.230Z,1.40
2023-08-27T10:23:26.222Z,1.70
2023-08-27T10:24:26.210Z,1.30
2023-08-27T10:25:26.217Z,1.50
2023-08-27T10:26:26.195Z,1.40
2023-08-27T10:27:26.197Z,1.40
2023-08-27T10:28:26.179Z,1.30
2023-08-27T10:29:26.208Z,1.60
2023-08-27T10:30:26.256Z,1.30
2023-08-27T10:31:26.152Z,1.30
2023-08-27T10:32:26.158Z,1.20
2023-08-27T10:33:26.122Z,1.30
2023-08-27T10:34:26.111Z,1.40
2023-08-27T10:35:26.110Z,1.40
2023-08-27T10:36:26.083Z,1.30
2023-08-27T10:37:26.079Z,1.30
2023-08-27T10:38:26.068Z,1.50
2023-08-27T10:39:26.090Z,1.30
2023-08-27T10:40:26.047Z,1.70
2023-08-27T10:41:26.045Z,1.70
2023-08-27T10:42:26.032Z,1.30
2023-08-27T10:43:26.009Z,1.40
2023-08-27T10:44:26.019Z,1.40
2023-08-27T10:45:25.996Z,1.40
2023-08-27T10:46:26.078Z,1.40
2023-08-27T10:47:26.008Z,1.30
2023-08-27T10:48:25.969Z,1.30
2023-08-27T10:49:25.960Z,1.30
2023-08-27T10:50:25.969Z,1.20
2023-08-27T10:51:25.940Z,1.30
2023-08-27T10:52:25.945Z,1.40
2023-08-27T10:53:25.914Z,1.30
2023-08-27T10:54:25.930Z,1.60
2023-08-27T10:55:25.906Z,1.20
2023-08-27T10:56:25.882Z,1.20
2023-08-27T10:57:25.896Z,1.30
2023-08-27T10:58:25.862Z,1.30
2023-08-27T10:59:25.871Z,1.70
2023-08-27T11:00:25.886Z,1.20
2023-08-27T11:01:25.929Z,1.40
2023-08-27T11:02:25.868Z,1.30
2023-08-27T11:03:25.972Z,1.20
2023-08-27T11:04:25.788Z,1.40
2023-08-27T11:05:25.768Z,1.50
2023-08-27T11:06:25.781Z,1.20
2023-08-27T11:07:25.758Z,1.40
2023-08-27T11:08:25.752Z,1.30
2023-08-27T11:09:25.797Z,1.40
2023-08-27T11:10:25.720Z,1.30
2023-08-27T11:11:27.640Z,1.40
2023-08-27T11:12:25.977Z,1.30
2023-08-27T11:13:25.697Z,1.50
2023-08-27T11:14:25.802Z,1.30
2023-08-27T11:15:25.705Z,1.70
2023-08-27T11:16:25.674Z,1.50
2023-08-27T11:17:25.743Z,1.30
2023-08-27T11:18:25.683Z,1.40
2023-08-27T11:19:26.737Z,1.30
2023-08-27T11:20:25.638Z,1.30
2023-08-27T11:21:25.626Z,1.40
2023-08-27T11:22:25.634Z,1.30
2023-08-27T11:23:25.629Z,1.10
2023-08-27T11:24:25.578Z,1.20
2023-08-27T11:25:26.570Z,1.20
2023-08-27T11:26:25.548Z,1.40
2023-08-27T11:27:25.544Z,1.20
2023-08-27T11:28:25.556Z,1.20
2023-08-27T11:29:25.569Z,1.20
2023-08-27T11:30:25.552Z,1.30
2023-08-27T11:31:25.522Z,1.60
2023-08-27T11:32:25.665Z,1.30
2023-08-27T11:33:25.526Z,1.50
2023-08-27T11:34:25.469Z,1.40
2023-08-27T11:35:25.516Z,1.40
2023-08-27T11:36:25.459Z,1.20
2023-08-27T11:37:25.452Z,1.40
2023-08-27T11:38:25.456Z,1.50
2023-08-27T11:39:25.430Z,1.40
2023-08-27T11:40:25.412Z,1.30
2023-08-27T11:41:25.444Z,1.40
2023-08-27T11:42:25.420Z,1.40
2023-08-27T11:43:25.369Z,1.30
2023-08-27T11:44:25.390Z,1.50
2023-08-27T11:45:25.389Z,1.30
2023-08-27T11:46:25.399Z,1.20
2023-08-27T11:47:25.344Z,1.30
2023-08-27T11:48:25.390Z,1.50
2023-08-27T11:49:25.341Z,1.20
2023-08-27T11:50:25.335Z,1.40
2023-08-27T11:51:25.294Z,1.30
2023-08-27T11:52:25.456Z,1.20
2023-08-27T11:53:25.278Z,1.30
2023-08-27T11:54:25.309Z,1.50
2023-08-27T11:55:25.910Z,1.10
2023-08-27T11:56:25.270Z,1.30
2023-08-27T11:57:25.285Z,1.20
2023-08-27T11:58:25.327Z,1.20
2023-08-27T11:59:25.304Z,1.20
2023-08-27T12:00:25.231Z,1.40
2023-08-27T12:01:25.222Z,1.30
2023-08-27T12:02:25.211Z,1.10
2023-08-27T12:03:25.213Z,1.10
2023-08-27T12:04:25.243Z,1.20
2023-08-27T12:05:25.151Z,1.10
2023-08-27T12:06:25.193Z,1.70
2023-08-27T12:07:25.160Z,1.40
2023-08-27T12:08:25.159Z,1.40
2023-08-27T12:09:25.139Z,1.40
2023-08-27T12:10:25.142Z,1.50
2023-08-27T12:11:25.154Z,1.20
2023-08-27T12:12:25.104Z,1.10
2023-08-27T12:13:25.090Z,1.20
2023-08-27T12:14:25.075Z,1.00
2023-08-27T12:15:25.039Z,1.10
2023-08-27T12:16:25.055Z,1.10
2023-08-27T12:17:25.047Z,1.10
2023-08-27T12:18:25.036Z,1.10
2023-08-27T12:19:25.015Z,1.10
2023-08-27T12:20:24.985Z,1.20
2023-08-27T12:21:25.022Z,1.10
2023-08-27T12:22:24.998Z,1.10
2023-08-27T12:23:24.958Z,1.10
2023-08-27T12:24:24.977Z,1.00
2023-08-27T12:25:24.968Z,1.20
2023-08-27T12:26:24.929Z,1.00
2023-08-27T12:27:24.923Z,1.10
2023-08-27T12:28:24.919Z,1.20
2023-08-27T12:29:24.898Z,1.50
2023-08-27T12:30:24.925Z,3.50
2023-08-27T12:31:24.940Z,3.70
2023-08-27T12:32:24.881Z,2.70
2023-08-27T12:33:24.880Z,3.20
2023-08-27T12:34:24.872Z,2.80
2023-08-27T12:35:24.826Z,2.30
2023-08-27T12:36:24.823Z,1.80
2023-08-27T12:37:24.818Z,1.50
2023-08-27T12:38:24.832Z,1.20
2023-08-27T12:39:24.811Z,1.10
2023-08-27T12:40:24.800Z,1.00
2023-08-27T12:41:24.765Z,1.00
2023-08-27T12:42:24.761Z,1.10
2023-08-27T12:43:24.768Z,1.00
2023-08-27T12:44:24.747Z,1.00
2023-08-27T12:45:24.714Z,1.00
2023-08-27T12:46:24.785Z,1.10
2023-08-27T12:47:24.842Z,1.10
2023-08-27T12:48:24.704Z,1.00
2023-08-27T12:49:24.712Z,1.10
2023-08-27T12:50:24.681Z,1.20
2023-08-27T12:51:24.676Z,1.10
2023-08-27T12:52:24.642Z,1.10
2023-08-27T12:53:24.683Z,1.30
2023-08-27T12:54:24.629Z,1.20
2023-08-27T12:55:24.622Z,2.50
2023-08-27T12:56:24.601Z,1.60
2023-08-27T12:57:24.623Z,1.40
2023-08-27T12:58:24.616Z,1.20
2023-08-27T12:59:24.582Z,1.10
2023-08-27T13:00:24.629Z,1.00
2023-08-27T13:01:24.640Z,1.30
2023-08-27T13:02:24.540Z,1.30
2023-08-27T13:03:24.615Z,1.30
2023-08-27T13:04:24.523Z,1.30
2023-08-27T13:05:24.527Z,1.10
2023-08-27T13:06:24.555Z,1.20
2023-08-27T13:07:24.500Z,1.10
2023-08-27T13:08:24.537Z,1.30
2023-08-27T13:09:24.509Z,1.50
2023-08-27T13:10:24.491Z,1.10
2023-08-27T13:11:24.504Z,1.30
2023-08-27T13:12:24.450Z,1.10
2023-08-27T13:13:26.412Z,1.00
2023-08-27T13:14:24.442Z,0.90
2023-08-27T13:15:24.457Z,1.00
2023-08-27T13:16:24.461Z,0.90
2023-08-27T13:17:24.402Z,1.00
2023-08-27T13:18:24.393Z,0.90